sensor_id;sensor_type;location;lat;lon;timestamp;pressure;altitude;pressure_sealevel;temperature;humidity
58385;BME280;44185;47.844;8.966;2023-04-05T00:01:48;96556.78;;;-2.39;83.36
58385;BME280;44185;47.844;8.966;2023-04-05T00:04:13;96549.94;;;-2.40;82.58
58385;BME280;44185;47.844;8.966;2023-04-05T00:06:39;96551.72;;;-2.42;82.08
58385;BME280;44185;47.844;8.966;2023-04-05T00:09:04;96551.00;;;-2.47;82.47
58385;BME280;44185;47.844;8.966;2023-04-05T00:11:31;96544.13;;;-2.48;82.07
58385;BME280;44185;47.844;8.966;2023-04-05T00:13:58;96540.59;;;-2.46;81.75
58385;BME280;44185;47.844;8.966;2023-04-05T00:16:26;96540.59;;;-2.46;81.58
58385;BME280;44185;47.844;8.966;2023-04-05T00:18:51;96543.13;;;-2.44;82.07
58385;BME280;44185;47.844;8.966;2023-04-05T00:21:17;96544.03;;;-2.45;82.43
58385;BME280;44185;47.844;8.966;2023-04-05T00:23:43;96542.09;;;-2.38;81.62
58385;BME280;44185;47.844;8.966;2023-04-05T00:26:09;96539.38;;;-2.33;81.67
58385;BME280;44185;47.844;8.966;2023-04-05T00:28:35;96526.31;;;-2.30;81.17
58385;BME280;44185;47.844;8.966;2023-04-05T00:31:02;96531.47;;;-2.29;80.92
58385;BME280;44185;47.844;8.966;2023-04-05T00:33:28;96527.09;;;-2.27;80.85
58385;BME280;44185;47.844;8.966;2023-04-05T00:35:53;96528.75;;;-2.24;80.94
58385;BME280;44185;47.844;8.966;2023-04-05T00:38:19;96533.03;;;-2.23;80.45
58385;BME280;44185;47.844;8.966;2023-04-05T00:40:44;96524.31;;;-2.20;80.53
58385;BME280;44185;47.844;8.966;2023-04-05T00:43:10;96527.00;;;-2.24;80.59
58385;BME280;44185;47.844;8.966;2023-04-05T00:45:35;96527.94;;;-2.26;80.42
58385;BME280;44185;47.844;8.966;2023-04-05T00:48:02;96518.31;;;-2.22;80.87
58385;BME280;44185;47.844;8.966;2023-04-05T00:50:28;96515.16;;;-2.32;81.66
58385;BME280;44185;47.844;8.966;2023-04-05T00:52:54;96518.63;;;-2.33;81.15
58385;BME280;44185;47.844;8.966;2023-04-05T00:55:20;96508.31;;;-2.35;81.72
58385;BME280;44185;47.844;8.966;2023-04-05T00:57:46;96509.41;;;-2.42;82.26
58385;BME280;44185;47.844;8.966;2023-04-05T01:00:12;96504.16;;;-2.41;81.65
58385;BME280;44185;47.844;8.966;2023-04-05T01:02:43;96510.13;;;-2.39;81.90
58385;BME280;44185;47.844;8.966;2023-04-05T01:05:20;96502.34;;;-2.39;81.65
58385;BME280;44185;47.844;8.966;2023-04-05T01:07:52;96498.09;;;-2.40;81.36
58385;BME280;44185;47.844;8.966;2023-04-05T01:10:21;96499.78;;;-2.39;80.69
58385;BME280;44185;47.844;8.966;2023-04-05T01:12:47;96497.16;;;-2.37;80.41
58385;BME280;44185;47.844;8.966;2023-04-05T01:15:12;96494.31;;;-2.29;80.38
58385;BME280;44185;47.844;8.966;2023-04-05T01:17:38;96490.03;;;-2.30;79.48
58385;BME280;44185;47.844;8.966;2023-04-05T01:20:06;96483.09;;;-2.30;79.90
58385;BME280;44185;47.844;8.966;2023-04-05T01:23:15;96481.44;;;-2.32;80.24
58385;BME280;44185;47.844;8.966;2023-04-05T01:26:19;96486.69;;;-2.34;80.47
58385;BME280;44185;47.844;8.966;2023-04-05T01:29:01;96471.94;;;-2.32;80.47
58385;BME280;44185;47.844;8.966;2023-04-05T01:31:40;96471.97;;;-2.33;81.05
58385;BME280;44185;47.844;8.966;2023-04-05T01:34:22;96473.72;;;-2.34;80.20
58385;BME280;44185;47.844;8.966;2023-04-05T01:36:56;96470.94;;;-2.28;79.96
58385;BME280;44185;47.844;8.966;2023-04-05T01:39:23;96468.22;;;-2.23;79.35
58385;BME280;44185;47.844;8.966;2023-04-05T01:41:49;96472.56;;;-2.24;79.83
58385;BME280;44185;47.844;8.966;2023-04-05T01:44:15;96467.31;;;-2.22;78.93
58385;BME280;44185;47.844;8.966;2023-04-05T01:46:41;96475.75;;;-2.15;78.74
58385;BME280;44185;47.844;8.966;2023-04-05T01:49:07;96480.81;;;-2.12;79.03
58385;BME280;44185;47.844;8.966;2023-04-05T01:51:32;96470.53;;;-2.14;79.08
58385;BME280;44185;47.844;8.966;2023-04-05T01:53:58;96466.03;;;-2.08;78.49
58385;BME280;44185;47.844;8.966;2023-04-05T01:56:23;96465.16;;;-2.07;78.70
58385;BME280;44185;47.844;8.966;2023-04-05T01:58:49;96462.59;;;-2.09;78.53
58385;BME280;44185;47.844;8.966;2023-04-05T02:01:14;96458.19;;;-2.07;77.89
58385;BME280;44185;47.844;8.966;2023-04-05T02:03:41;96468.56;;;-2.07;77.98
58385;BME280;44185;47.844;8.966;2023-04-05T02:06:06;96458.91;;;-2.02;78.75
58385;BME280;44185;47.844;8.966;2023-04-05T02:08:32;96460.75;;;-2.05;79.05
58385;BME280;44185;47.844;8.966;2023-04-05T02:10:57;96460.94;;;-2.12;78.67
58385;BME280;44185;47.844;8.966;2023-04-05T02:13:23;96458.41;;;-2.13;79.27
58385;BME280;44185;47.844;8.966;2023-04-05T02:15:49;96458.41;;;-2.13;79.05
58385;BME280;44185;47.844;8.966;2023-04-05T02:18:15;96455.03;;;-2.15;79.58
58385;BME280;44185;47.844;8.966;2023-04-05T02:20:41;96447.09;;;-2.10;79.21
58385;BME280;44185;47.844;8.966;2023-04-05T02:23:07;96441.09;;;-2.13;79.01
58385;BME280;44185;47.844;8.966;2023-04-05T02:25:33;96429.03;;;-2.14;78.06
58385;BME280;44185;47.844;8.966;2023-04-05T02:27:58;96434.84;;;-2.07;77.35
58385;BME280;44185;47.844;8.966;2023-04-05T02:30:24;96430.53;;;-2.06;77.17
58385;BME280;44185;47.844;8.966;2023-04-05T02:32:49;96430.50;;;-2.05;77.21
58385;BME280;44185;47.844;8.966;2023-04-05T02:35:15;96428.78;;;-2.06;76.84
58385;BME280;44185;47.844;8.966;2023-04-05T02:37:41;96430.50;;;-2.05;76.38
58385;BME280;44185;47.844;8.966;2023-04-05T02:40:10;96421.59;;;-2.25;79.11
58385;BME280;44185;47.844;8.966;2023-04-05T02:42:36;96433.91;;;-2.31;78.72
58385;BME280;44185;47.844;8.966;2023-04-05T02:45:01;96425.38;;;-2.35;79.39
58385;BME280;44185;47.844;8.966;2023-04-05T02:47:27;96421.22;;;-2.41;81.95
58385;BME280;44185;47.844;8.966;2023-04-05T02:49:52;96428.50;;;-2.54;83.73
58385;BME280;44185;47.844;8.966;2023-04-05T02:52:18;96427.88;;;-2.61;81.23
58385;BME280;44185;47.844;8.966;2023-04-05T02:54:45;96422.78;;;-2.64;80.94
58385;BME280;44185;47.844;8.966;2023-04-05T02:57:10;96429.31;;;-2.52;80.24
58385;BME280;44185;47.844;8.966;2023-04-05T02:59:36;96426.47;;;-2.42;78.36
58385;BME280;44185;47.844;8.966;2023-04-05T03:02:01;96411.59;;;-2.37;78.17
58385;BME280;44185;47.844;8.966;2023-04-05T03:04:27;96410.69;;;-2.36;78.71
58385;BME280;44185;47.844;8.966;2023-04-05T03:06:52;96420.84;;;-2.28;76.28
58385;BME280;44185;47.844;8.966;2023-04-05T03:09:17;96422.59;;;-2.29;76.29
58385;BME280;44185;47.844;8.966;2023-04-05T03:11:44;96411.22;;;-2.25;76.50
58385;BME280;44185;47.844;8.966;2023-04-05T03:14:10;96389.00;;;-2.33;75.63
58385;BME280;44185;47.844;8.966;2023-04-05T03:16:35;96407.59;;;-2.19;76.06
58385;BME280;44185;47.844;8.966;2023-04-05T03:19:00;96407.69;;;-2.22;76.41
58385;BME280;44185;47.844;8.966;2023-04-05T03:21:26;96410.25;;;-2.20;76.62
58385;BME280;44185;47.844;8.966;2023-04-05T03:23:51;96408.06;;;-2.35;77.79
58385;BME280;44185;47.844;8.966;2023-04-05T03:26:17;96405.56;;;-2.38;77.71
58385;BME280;44185;47.844;8.966;2023-04-05T03:28:43;96405.91;;;-2.49;78.07
58385;BME280;44185;47.844;8.966;2023-04-05T03:31:09;96404.31;;;-2.53;77.20
58385;BME280;44185;47.844;8.966;2023-04-05T03:33:35;96399.22;;;-2.56;78.29
58385;BME280;44185;47.844;8.966;2023-04-05T03:36:00;96402.69;;;-2.57;78.81
58385;BME280;44185;47.844;8.966;2023-04-05T03:38:26;96402.31;;;-2.73;78.67
58385;BME280;44185;47.844;8.966;2023-04-05T03:40:51;96401.59;;;-2.79;79.36
58385;BME280;44185;47.844;8.966;2023-04-05T03:43:16;96391.53;;;-2.88;80.54
58385;BME280;44185;47.844;8.966;2023-04-05T03:45:43;96392.63;;;-2.97;80.70
58385;BME280;44185;47.844;8.966;2023-04-05T03:48:09;96394.56;;;-3.04;81.26
58385;BME280;44185;47.844;8.966;2023-04-05T03:50:34;96396.44;;;-3.09;81.14
58385;BME280;44185;47.844;8.966;2023-04-05T03:53:00;96396.22;;;-3.01;80.52
58385;BME280;44185;47.844;8.966;2023-04-05T03:55:25;96404.75;;;-2.97;80.64
58385;BME280;44185;47.844;8.966;2023-04-05T03:57:51;96392.81;;;-3.03;80.95
58385;BME280;44185;47.844;8.966;2023-04-05T04:00:17;96398.88;;;-3.04;81.10
58385;BME280;44185;47.844;8.966;2023-04-05T04:02:45;96386.00;;;-3.06;81.15
58385;BME280;44185;47.844;8.966;2023-04-05T04:05:10;96393.72;;;-3.04;80.14
58385;BME280;44185;47.844;8.966;2023-04-05T04:07:36;96398.00;;;-3.03;80.61
58385;BME280;44185;47.844;8.966;2023-04-05T04:10:02;96390.34;;;-3.08;80.95
58385;BME280;44185;47.844;8.966;2023-04-05T04:12:28;96396.66;;;-3.17;80.49
58385;BME280;44185;47.844;8.966;2023-04-05T04:14:54;96393.34;;;-3.22;81.60
58385;BME280;44185;47.844;8.966;2023-04-05T04:17:26;96397.63;;;-3.21;81.98
58385;BME280;44185;47.844;8.966;2023-04-05T04:19:53;96388.13;;;-3.20;82.02
58385;BME280;44185;47.844;8.966;2023-04-05T04:22:18;96394.19;;;-3.21;82.26
58385;BME280;44185;47.844;8.966;2023-04-05T04:24:44;96383.03;;;-3.24;82.85
58385;BME280;44185;47.844;8.966;2023-04-05T04:27:09;96389.34;;;-3.34;83.50
58385;BME280;44185;47.844;8.966;2023-04-05T04:29:35;96379.91;;;-3.35;83.58
58385;BME280;44185;47.844;8.966;2023-04-05T04:32:00;96377.25;;;-3.32;83.44
58385;BME280;44185;47.844;8.966;2023-04-05T04:34:26;96389.31;;;-3.32;83.26
58385;BME280;44185;47.844;8.966;2023-04-05T04:36:52;96376.38;;;-3.32;83.78
58385;BME280;44185;47.844;8.966;2023-04-05T04:39:18;96383.44;;;-3.38;83.99
58385;BME280;44185;47.844;8.966;2023-04-05T04:41:43;96379.91;;;-3.35;83.62
58385;BME280;44185;47.844;8.966;2023-04-05T04:44:09;96379.94;;;-3.37;83.09
58385;BME280;44185;47.844;8.966;2023-04-05T04:46:34;96373.09;;;-3.39;83.28
58385;BME280;44185;47.844;8.966;2023-04-05T04:49:00;96382.44;;;-3.33;82.54
58385;BME280;44185;47.844;8.966;2023-04-05T04:51:25;96382.50;;;-3.35;83.06
58385;BME280;44185;47.844;8.966;2023-04-05T04:53:52;96386.81;;;-3.36;82.94
58385;BME280;44185;47.844;8.966;2023-04-05T04:56:18;96386.03;;;-3.39;83.35
58385;BME280;44185;47.844;8.966;2023-04-05T04:58:43;96378.47;;;-3.46;83.93
58385;BME280;44185;47.844;8.966;2023-04-05T05:01:08;96387.03;;;-3.43;82.77
58385;BME280;44185;47.844;8.966;2023-04-05T05:03:34;96387.53;;;-3.30;82.47
58385;BME280;44185;47.844;8.966;2023-04-05T05:06:00;96386.59;;;-3.28;83.23
58385;BME280;44185;47.844;8.966;2023-04-05T05:08:25;96388.34;;;-3.28;82.15
58385;BME280;44185;47.844;8.966;2023-04-05T05:10:52;96395.25;;;-3.29;81.73
58385;BME280;44185;47.844;8.966;2023-04-05T05:13:18;96388.34;;;-3.28;81.44
58385;BME280;44185;47.844;8.966;2023-04-05T05:15:43;96390.84;;;-3.25;81.22
58385;BME280;44185;47.844;8.966;2023-04-05T05:18:09;96393.28;;;-3.20;80.88
58385;BME280;44185;47.844;8.966;2023-04-05T05:20:34;96393.34;;;-3.22;80.72
58385;BME280;44185;47.844;8.966;2023-04-05T05:23:00;96388.03;;;-3.17;79.71
58385;BME280;44185;47.844;8.966;2023-04-05T05:25:25;96399.06;;;-3.10;80.51
58385;BME280;44185;47.844;8.966;2023-04-05T05:27:52;96399.06;;;-3.10;80.62
58385;BME280;44185;47.844;8.966;2023-04-05T05:30:17;96405.00;;;-3.07;79.61
58385;BME280;44185;47.844;8.966;2023-04-05T05:32:43;96409.09;;;-2.99;79.60
58385;BME280;44185;47.844;8.966;2023-04-05T05:35:08;96406.44;;;-2.96;80.05
58385;BME280;44185;47.844;8.966;2023-04-05T05:37:34;96411.25;;;-2.84;79.91
58385;BME280;44185;47.844;8.966;2023-04-05T05:40:00;96412.66;;;-2.73;79.29
58385;BME280;44185;47.844;8.966;2023-04-05T05:42:25;96411.38;;;-2.58;78.27
58385;BME280;44185;47.844;8.966;2023-04-05T05:44:52;96416.88;;;-2.40;77.47
58385;BME280;44185;47.844;8.966;2023-04-05T05:47:18;96408.63;;;-2.25;77.48
58385;BME280;44185;47.844;8.966;2023-04-05T05:49:43;96408.81;;;-2.04;76.70
58385;BME280;44185;47.844;8.966;2023-04-05T05:52:08;96409.88;;;-1.82;75.88
58385;BME280;44185;47.844;8.966;2023-04-05T05:54:34;96411.75;;;-1.60;74.67
58385;BME280;44185;47.844;8.966;2023-04-05T05:56:59;96412.38;;;-1.53;73.15
58385;BME280;44185;47.844;8.966;2023-04-05T05:59:25;96404.88;;;-1.37;72.30
58385;BME280;44185;47.844;8.966;2023-04-05T06:01:53;96409.03;;;-1.07;71.49
58385;BME280;44185;47.844;8.966;2023-04-05T06:04:19;96395.38;;;-0.88;70.51
58385;BME280;44185;47.844;8.966;2023-04-05T06:06:45;96408.72;;;-0.51;69.83
58385;BME280;44185;47.844;8.966;2023-04-05T06:09:11;96417.06;;;-0.20;68.60
58385;BME280;44185;47.844;8.966;2023-04-05T06:11:36;96417.72;;;-0.15;67.62
58385;BME280;44185;47.844;8.966;2023-04-05T06:14:02;96421.53;;;-0.02;67.59
58385;BME280;44185;47.844;8.966;2023-04-05T06:16:27;96422.28;;;0.02;66.75
58385;BME280;44185;47.844;8.966;2023-04-05T06:18:54;96419.34;;;0.10;65.81
58385;BME280;44185;47.844;8.966;2023-04-05T06:21:19;96419.50;;;0.28;65.89
58385;BME280;44185;47.844;8.966;2023-04-05T06:23:45;96416.16;;;0.24;65.12
58385;BME280;44185;47.844;8.966;2023-04-05T06:26:15;96423.72;;;0.30;64.62
58385;BME280;44185;47.844;8.966;2023-04-05T06:28:41;96422.09;;;0.28;64.63
58385;BME280;44185;47.844;8.966;2023-04-05T06:31:06;96422.44;;;0.41;64.77
58385;BME280;44185;47.844;8.966;2023-04-05T06:33:32;96426.09;;;0.58;64.48
58385;BME280;44185;47.844;8.966;2023-04-05T06:35:59;96427.44;;;0.46;64.43
58385;BME280;44185;47.844;8.966;2023-04-05T06:38:24;96417.53;;;0.54;64.52
58385;BME280;44185;47.844;8.966;2023-04-05T06:40:49;96427.25;;;0.71;64.56
58385;BME280;44185;47.844;8.966;2023-04-05T06:43:15;96429.53;;;0.98;63.43
58385;BME280;44185;47.844;8.966;2023-04-05T06:45:41;96415.19;;;0.90;63.69
58385;BME280;44185;47.844;8.966;2023-04-05T06:48:07;96408.34;;;1.06;62.54
58385;BME280;44185;47.844;8.966;2023-04-05T06:50:32;96414.53;;;1.04;61.35
58385;BME280;44185;47.844;8.966;2023-04-05T06:52:59;96418.28;;;0.98;62.56
58385;BME280;44185;47.844;8.966;2023-04-05T06:55:24;96412.56;;;0.90;62.42
58385;BME280;44185;47.844;8.966;2023-04-05T06:57:50;96406.81;;;1.02;63.15
58385;BME280;44185;47.844;8.966;2023-04-05T07:02:42;96401.91;;;1.35;61.37
58385;BME280;44185;47.844;8.966;2023-04-05T07:05:09;96404.91;;;1.64;60.91
58385;BME280;44185;47.844;8.966;2023-04-05T07:07:38;96405.22;;;1.75;60.07
58385;BME280;44185;47.844;8.966;2023-04-05T07:10:05;96404.34;;;1.94;59.11
58385;BME280;44185;47.844;8.966;2023-04-05T07:12:31;96400.16;;;2.45;58.77
58385;BME280;44185;47.844;8.966;2023-04-05T07:14:58;96398.34;;;2.63;56.28
58385;BME280;44185;47.844;8.966;2023-04-05T07:17:24;96409.75;;;2.62;56.27
58385;BME280;44185;47.844;8.966;2023-04-05T07:19:50;96418.72;;;2.74;57.02
58385;BME280;44185;47.844;8.966;2023-04-05T07:22:15;96416.84;;;2.94;56.32
58385;BME280;44185;47.844;8.966;2023-04-05T07:24:41;96412.28;;;2.98;55.45
58385;BME280;44185;47.844;8.966;2023-04-05T07:27:07;96417.72;;;2.77;54.53
58385;BME280;44185;47.844;8.966;2023-04-05T07:29:33;96411.22;;;3.02;55.97
58385;BME280;44185;47.844;8.966;2023-04-05T07:31:59;96410.16;;;3.22;55.25
58385;BME280;44185;47.844;8.966;2023-04-05T07:34:24;96412.00;;;3.20;53.96
58385;BME280;44185;47.844;8.966;2023-04-05T07:36:50;96410.88;;;3.08;54.37
58385;BME280;44185;47.844;8.966;2023-04-05T07:39:15;96415.41;;;2.88;54.62
58385;BME280;44185;47.844;8.966;2023-04-05T07:41:40;96426.22;;;2.98;55.64
58385;BME280;44185;47.844;8.966;2023-04-05T07:44:07;96412.88;;;3.03;54.01
58385;BME280;44185;47.844;8.966;2023-04-05T07:46:33;96414.88;;;3.48;54.38
58385;BME280;44185;47.844;8.966;2023-04-05T07:48:59;96422.75;;;3.48;52.75
58385;BME280;44185;47.844;8.966;2023-04-05T07:51:24;96415.66;;;3.50;53.35
58385;BME280;44185;47.844;8.966;2023-04-05T07:53:49;96417.41;;;3.33;55.24
58385;BME280;44185;47.844;8.966;2023-04-05T07:56:15;96417.88;;;3.58;53.77
58385;BME280;44185;47.844;8.966;2023-04-05T07:58:41;96415.81;;;3.80;54.13
58385;BME280;44185;47.844;8.966;2023-04-05T08:01:09;96422.25;;;3.58;52.91
58385;BME280;44185;47.844;8.966;2023-04-05T08:03:35;96424.94;;;3.56;54.27
58385;BME280;44185;47.844;8.966;2023-04-05T08:06:08;96422.72;;;3.97;54.02
58385;BME280;44185;47.844;8.966;2023-04-05T08:08:34;96429.13;;;4.07;52.89
58385;BME280;44185;47.844;8.966;2023-04-05T08:11:01;96428.97;;;4.10;51.46
58385;BME280;44185;47.844;8.966;2023-04-05T08:13:27;96424.81;;;4.06;51.18
58385;BME280;44185;47.844;8.966;2023-04-05T08:15:55;96422.91;;;3.94;50.87
58385;BME280;44185;47.844;8.966;2023-04-05T08:18:22;96421.38;;;4.06;49.56
58385;BME280;44185;47.844;8.966;2023-04-05T08:20:50;96425.25;;;3.98;50.12
58385;BME280;44185;47.844;8.966;2023-04-05T08:23:15;96435.97;;;4.10;49.74
58385;BME280;44185;47.844;8.966;2023-04-05T08:25:40;96424.78;;;3.92;48.67
58385;BME280;44185;47.844;8.966;2023-04-05T08:28:06;96432.25;;;4.14;49.01
58385;BME280;44185;47.844;8.966;2023-04-05T08:30:31;96430.16;;;4.36;48.60
58385;BME280;44185;47.844;8.966;2023-04-05T08:32:57;96429.13;;;4.38;48.59
58385;BME280;44185;47.844;8.966;2023-04-05T08:35:24;96439.72;;;4.37;48.37
58385;BME280;44185;47.844;8.966;2023-04-05T08:37:49;96431.84;;;4.22;48.59
58385;BME280;44185;47.844;8.966;2023-04-05T08:40:14;96428.00;;;4.11;49.46
58385;BME280;44185;47.844;8.966;2023-04-05T08:42:45;96431.19;;;4.02;49.04
58385;BME280;44185;47.844;8.966;2023-04-05T08:45:17;96439.06;;;4.17;49.34
58385;BME280;44185;47.844;8.966;2023-04-05T08:47:43;96452.97;;;4.19;48.70
58385;BME280;44185;47.844;8.966;2023-04-05T08:50:10;96440.69;;;4.19;47.56
58385;BME280;44185;47.844;8.966;2023-04-05T08:52:38;96440.69;;;4.19;48.74
58385;BME280;44185;47.844;8.966;2023-04-05T08:55:05;96437.41;;;4.47;48.92
58385;BME280;44185;47.844;8.966;2023-04-05T08:57:31;96440.19;;;4.43;48.22
58385;BME280;44185;47.844;8.966;2023-04-05T08:59:58;96444.84;;;4.07;47.70
58385;BME280;44185;47.844;8.966;2023-04-05T09:02:25;96432.03;;;4.03;48.63
58385;BME280;44185;47.844;8.966;2023-04-05T09:04:51;96439.69;;;4.53;48.09
58385;BME280;44185;47.844;8.966;2023-04-05T09:07:19;96441.09;;;4.59;47.72
58385;BME280;44185;47.844;8.966;2023-04-05T09:09:49;96439.81;;;4.35;49.11
58385;BME280;44185;47.844;8.966;2023-04-05T09:12:19;96440.56;;;4.68;48.68
58385;BME280;44185;47.844;8.966;2023-04-05T09:14:45;96449.41;;;4.51;46.36
58385;BME280;44185;47.844;8.966;2023-04-05T09:17:13;96441.97;;;4.74;48.12
58385;BME280;44185;47.844;8.966;2023-04-05T09:19:41;96438.66;;;4.55;45.95
58385;BME280;44185;47.844;8.966;2023-04-05T09:22:07;96447.78;;;4.64;47.09
58385;BME280;44185;47.844;8.966;2023-04-05T09:24:34;96454.03;;;4.62;48.98
58385;BME280;44185;47.844;8.966;2023-04-05T09:27:05;96454.16;;;4.44;45.88
58385;BME280;44185;47.844;8.966;2023-04-05T09:29:30;96458.34;;;4.63;46.04
58385;BME280;44185;47.844;8.966;2023-04-05T09:31:56;96455.75;;;4.77;46.18
58385;BME280;44185;47.844;8.966;2023-04-05T09:34:23;96457.59;;;4.61;46.83
58385;BME280;44185;47.844;8.966;2023-04-05T09:36:48;96458.69;;;4.56;45.53
58385;BME280;44185;47.844;8.966;2023-04-05T09:39:14;96450.56;;;4.61;45.34
58385;BME280;44185;47.844;8.966;2023-04-05T09:41:39;96452.00;;;4.67;46.31
58385;BME280;44185;47.844;8.966;2023-04-05T09:44:06;96460.91;;;4.79;46.47
58385;BME280;44185;47.844;8.966;2023-04-05T09:46:32;96458.28;;;4.79;47.27
58385;BME280;44185;47.844;8.966;2023-04-05T09:48:58;96455.47;;;4.97;46.62
58385;BME280;44185;47.844;8.966;2023-04-05T09:51:30;96456.16;;;5.15;45.87
58385;BME280;44185;47.844;8.966;2023-04-05T09:53:57;96450.53;;;5.21;46.04
58385;BME280;44185;47.844;8.966;2023-04-05T09:56:23;96445.75;;;5.28;46.36
58385;BME280;44185;47.844;8.966;2023-04-05T09:58:49;96459.16;;;5.23;46.29
58385;BME280;44185;47.844;8.966;2023-04-05T10:01:17;96462.94;;;4.74;43.18
58385;BME280;44185;47.844;8.966;2023-04-05T10:03:45;96449.03;;;4.57;47.63
58385;BME280;44185;47.844;8.966;2023-04-05T10:06:11;96452.09;;;4.49;46.37
58385;BME280;44185;47.844;8.966;2023-04-05T10:08:36;96454.31;;;5.17;47.60
58385;BME280;44185;47.844;8.966;2023-04-05T10:11:03;96462.34;;;5.29;45.49
58385;BME280;44185;47.844;8.966;2023-04-05T10:13:30;96457.09;;;5.58;45.11
58385;BME280;44185;47.844;8.966;2023-04-05T10:15:59;96446.56;;;5.73;45.40
58385;BME280;44185;47.844;8.966;2023-04-05T10:18:29;96442.00;;;5.62;44.73
58385;BME280;44185;47.844;8.966;2023-04-05T10:20:57;96433.44;;;6.00;44.66
58385;BME280;44185;47.844;8.966;2023-04-05T10:23:27;96432.72;;;6.13;43.50
58385;BME280;44185;47.844;8.966;2023-04-05T10:26:00;96435.09;;;5.74;45.94
58385;BME280;44185;47.844;8.966;2023-04-05T10:28:30;96443.25;;;6.26;45.72
58385;BME280;44185;47.844;8.966;2023-04-05T10:31:00;96435.97;;;6.17;42.33
58385;BME280;44185;47.844;8.966;2023-04-05T10:33:30;96441.44;;;6.54;43.18
58385;BME280;44185;47.844;8.966;2023-04-05T10:36:05;96444.63;;;6.73;43.70
58385;BME280;44185;47.844;8.966;2023-04-05T10:38:37;96437.72;;;6.44;43.83
58385;BME280;44185;47.844;8.966;2023-04-05T10:41:09;96436.31;;;6.25;40.51
58385;BME280;44185;47.844;8.966;2023-04-05T10:43:36;96432.38;;;6.59;44.06
58385;BME280;44185;47.844;8.966;2023-04-05T10:46:05;96440.53;;;6.69;41.66
58385;BME280;44185;47.844;8.966;2023-04-05T10:48:37;96439.13;;;6.63;41.64
58385;BME280;44185;47.844;8.966;2023-04-05T10:51:05;96435.66;;;6.75;41.24
58385;BME280;44185;47.844;8.966;2023-04-05T10:53:32;96436.72;;;6.86;43.95
58385;BME280;44185;47.844;8.966;2023-04-05T10:56:00;96424.81;;;5.98;42.00
58385;BME280;44185;47.844;8.966;2023-04-05T10:58:26;96428.69;;;5.93;43.70
58385;BME280;44185;47.844;8.966;2023-04-05T11:00:53;96413.66;;;6.09;43.43
58385;BME280;44185;47.844;8.966;2023-04-05T11:03:46;96419.81;;;6.23;44.02
58385;BME280;44185;47.844;8.966;2023-04-05T11:06:23;96421.22;;;6.14;44.89
58385;BME280;44185;47.844;8.966;2023-04-05T11:08:52;96418.06;;;6.50;44.42
58385;BME280;44185;47.844;8.966;2023-04-05T11:11:17;96423.06;;;6.94;43.14
58385;BME280;44185;47.844;8.966;2023-04-05T11:13:51;96412.72;;;6.51;43.65
58385;BME280;44185;47.844;8.966;2023-04-05T11:16:16;96415.81;;;6.84;44.98
58385;BME280;44185;47.844;8.966;2023-04-05T11:18:47;96411.84;;;6.38;43.13
58385;BME280;44185;47.844;8.966;2023-04-05T11:21:20;96413.38;;;6.81;42.00
58385;BME280;44185;47.844;8.966;2023-04-05T11:24:00;96413.78;;;7.01;43.21
58385;BME280;44185;47.844;8.966;2023-04-05T11:26:30;96414.75;;;6.87;40.04
58385;BME280;44185;47.844;8.966;2023-04-05T11:28:56;96402.72;;;7.35;41.24
58385;BME280;44185;47.844;8.966;2023-04-05T11:31:22;96400.34;;;7.56;41.83
58385;BME280;44185;47.844;8.966;2023-04-05T11:33:56;96402.56;;;7.50;42.04
58385;BME280;44185;47.844;8.966;2023-04-05T11:36:29;96397.16;;;7.64;41.60
58385;BME280;44185;47.844;8.966;2023-04-05T11:39:21;96401.56;;;7.77;43.65
58385;BME280;44185;47.844;8.966;2023-04-05T11:41:52;96392.06;;;7.37;40.61
58385;BME280;44185;47.844;8.966;2023-04-05T11:44:18;96385.38;;;6.80;41.28
58385;BME280;44185;47.844;8.966;2023-04-05T11:46:45;96391.47;;;7.07;39.70
58385;BME280;44185;47.844;8.966;2023-04-05T11:49:12;96386.09;;;6.82;42.38
58385;BME280;44185;47.844;8.966;2023-04-05T11:51:39;96391.81;;;6.89;40.19
58385;BME280;44185;47.844;8.966;2023-04-05T11:54:05;96393.38;;;6.92;40.14
58385;BME280;44185;47.844;8.966;2023-04-05T11:56:30;96388.63;;;7.10;40.19
58385;BME280;44185;47.844;8.966;2023-04-05T11:58:57;96373.59;;;6.99;42.38
58385;BME280;44185;47.844;8.966;2023-04-05T12:01:22;96382.22;;;6.75;39.69
58385;BME280;44185;47.844;8.966;2023-04-05T12:03:52;96370.97;;;6.99;38.87
58385;BME280;44185;47.844;8.966;2023-04-05T12:06:21;96380.34;;;7.03;40.75
58385;BME280;44185;47.844;8.966;2023-04-05T12:08:46;96379.06;;;6.83;41.39
58385;BME280;44185;47.844;8.966;2023-04-05T12:11:12;96374.00;;;7.19;41.01
58385;BME280;44185;47.844;8.966;2023-04-05T12:13:38;96374.03;;;6.93;40.23
58385;BME280;44185;47.844;8.966;2023-04-05T12:16:05;96365.09;;;6.95;40.15
58385;BME280;44185;47.844;8.966;2023-04-05T12:18:32;96367.75;;;7.33;40.73
58385;BME280;44185;47.844;8.966;2023-04-05T12:20:58;96368.69;;;7.45;41.28
58385;BME280;44185;47.844;8.966;2023-04-05T12:23:26;96373.25;;;8.17;39.43
58385;BME280;44185;47.844;8.966;2023-04-05T12:25:53;96360.56;;;7.48;40.08
58385;BME280;44185;47.844;8.966;2023-04-05T12:28:19;96356.50;;;7.31;39.39
58385;BME280;44185;47.844;8.966;2023-04-05T12:30:48;96355.69;;;7.55;40.76
58385;BME280;44185;47.844;8.966;2023-04-05T12:33:14;96361.22;;;7.39;39.49
58385;BME280;44185;47.844;8.966;2023-04-05T12:35:39;96358.72;;;7.24;40.00
58385;BME280;44185;47.844;8.966;2023-04-05T12:38:05;96352.66;;;7.73;43.98
58385;BME280;44185;47.844;8.966;2023-04-05T12:40:33;96356.75;;;8.01;41.99
58385;BME280;44185;47.844;8.966;2023-04-05T12:43:03;96348.47;;;7.70;40.35
58385;BME280;44185;47.844;8.966;2023-04-05T12:45:29;96349.72;;;7.77;40.03
58385;BME280;44185;47.844;8.966;2023-04-05T12:47:56;96350.09;;;8.09;42.73
58385;BME280;44185;47.844;8.966;2023-04-05T12:50:25;96350.31;;;8.06;39.19
58385;BME280;44185;47.844;8.966;2023-04-05T12:52:56;96346.72;;;8.43;41.25
58385;BME280;44185;47.844;8.966;2023-04-05T12:55:21;96347.66;;;8.78;38.45
58385;BME280;44185;47.844;8.966;2023-04-05T12:57:53;96337.59;;;8.83;38.08
58385;BME280;44185;47.844;8.966;2023-04-05T13:00:20;96334.69;;;8.98;41.48
58385;BME280;44185;47.844;8.966;2023-04-05T13:02:49;96328.56;;;8.97;39.13
58385;BME280;44185;47.844;8.966;2023-04-05T13:05:15;96336.00;;;8.92;37.16
58385;BME280;44185;47.844;8.966;2023-04-05T13:07:40;96337.53;;;8.60;36.92